Garrison, Maryland
Current Conditions -  °F | °C
As of 12:54 AM on Monday 26 Jan 2015 (Local Time) from KBWI Reporting Station
Light Rain Light Rain  
Wind Chill: 33°   Ceiling: 4600
Heat Index: 40°   Visibility: 10mi
Dew Point: 33°   Wind: 12mph
Humidity: 77%   Direction: 60°ENE
Pressure: 29.86"   Gusts: NA
Location:  39.41°N, 76.76°W
Report Text: KBWI 260554Z 06010KT 10SM -RA OVC046 04/01 A2986 RMK AO2 RAB41 SLP111 P0000 60000 T00440006 10067 20044 58002
Loading
Personal Weather Stations






























Interactive Weather Map New forecast layout! Learn more

10-Day Weather Forecast

Advertisements
Track Severe Weather on mobile